Time;durP1;ratioP1;P1;durP2;ratioP2;P2;SDS_P1;SDS_P2;PMS_P1;PMS_P2;Temp;Humidity;BMP_temperature;BMP_pressure;BME280_temperature;BME280_humidity;BME280_pressure;Samples;Min_cycle;Max_cycle;Signal;HPM_P1;HPM_P2
2023/05/20 00:02:11;;;;;;;2.33;2.22;;;19.90;62.10;;;;;;5040572;28;20068;-81
2023/05/20 00:04:36;;;;;;;2.17;2.08;;;19.90;62.10;;;;;;5052786;28;20075;-81
2023/05/20 00:07:02;;;;;;;1.73;1.63;;;19.90;62.10;;;;;;5056234;28;20033;-81
2023/05/20 00:09:28;;;;;;;1.98;1.88;;;19.90;62.20;;;;;;5054743;28;20040;-81
2023/05/20 00:11:54;;;;;;;2.28;2.17;;;19.90;62.20;;;;;;5048735;28;20099;-80
2023/05/20 00:14:20;;;;;;;2.22;2.03;;;19.90;62.20;;;;;;5051338;28;20387;-80
2023/05/20 00:16:45;;;;;;;2.40;2.20;;;19.90;62.20;;;;;;5055391;28;20044;-80
2023/05/20 00:19:11;;;;;;;2.20;2.10;;;19.90;62.30;;;;;;5043143;28;20040;-80
2023/05/20 00:21:37;;;;;;;1.70;1.60;;;19.90;62.30;;;;;;5054293;28;20048;-80
2023/05/20 00:24:02;;;;;;;2.00;1.90;;;19.90;62.30;;;;;;5048325;28;20124;-81
2023/05/20 00:26:28;;;;;;;1.92;1.83;;;19.90;62.30;;;;;;5054630;28;20102;-79
2023/05/20 00:28:53;;;;;;;1.80;1.70;;;19.80;62.30;;;;;;5049998;28;20073;-80
2023/05/20 00:31:20;;;;;;;1.67;1.58;;;19.80;62.30;;;;;;5049975;28;20517;-81
2023/05/20 00:33:46;;;;;;;2.03;1.92;;;19.90;62.30;;;;;;5051234;28;20041;-79
2023/05/20 00:36:11;;;;;;;2.10;2.00;;;19.80;62.30;;;;;;5050864;28;20048;-80
2023/05/20 00:38:37;;;;;;;2.45;1.83;;;19.80;62.30;;;;;;5050871;28;20036;-79
2023/05/20 00:41:02;;;;;;;2.33;2.13;;;19.80;62.30;;;;;;5056148;28;20083;-80
2023/05/20 00:43:28;;;;;;;1.60;1.50;;;19.80;62.30;;;;;;5060726;28;20133;-79
2023/05/20 00:45:53;;;;;;;2.47;1.70;;;19.80;62.40;;;;;;5054142;28;20400;-79
2023/05/20 00:48:20;;;;;;;1.90;1.73;;;19.80;62.40;;;;;;5022775;28;20090;-80
2023/05/20 00:50:46;;;;;;;1.98;1.83;;;19.80;62.40;;;;;;5044740;28;20506;-80
2023/05/20 00:53:11;;;;;;;1.92;1.83;;;19.80;62.40;;;;;;5038163;28;20040;-80
2023/05/20 00:55:37;;;;;;;3.67;1.92;;;19.80;62.50;;;;;;5034759;28;20041;-79
2023/05/20 00:58:03;;;;;;;1.70;1.60;;;19.80;62.40;;;;;;5052838;28;20041;-80
2023/05/20 01:00:28;;;;;;;1.70;1.60;;;19.80;62.50;;;;;;5035902;28;20106;-79
2023/05/20 01:02:55;;;;;;;2.20;2.00;;;19.80;62.50;;;;;;5055160;28;20049;-79
2023/05/20 01:05:21;;;;;;;1.67;1.58;;;19.80;62.50;;;;;;5035583;28;20041;-80
2023/05/20 01:07:46;;;;;;;1.60;1.50;;;19.80;62.50;;;;;;5051166;28;20099;-79
2023/05/20 01:10:12;;;;;;;1.63;1.52;;;19.80;62.60;;;;;;5033697;28;20036;-80
2023/05/20 01:12:57;;;;;;;1.73;1.63;;;19.80;62.50;;;;;;5059871;28;20151;-80
2023/05/20 01:15:24;;;;;;;1.58;1.48;;;19.80;62.60;;;;;;5051649;28;20065;-81
2023/05/20 01:17:51;;;;;;;1.50;1.40;;;19.80;62.50;;;;;;5029304;28;20041;-80
2023/05/20 01:20:17;;;;;;;1.90;1.80;;;19.80;63.00;;;;;;5036459;28;20259;-80
2023/05/20 01:22:47;;;;;;;1.63;1.50;;;19.80;62.60;;;;;;5038809;28;20029;-81
2023/05/20 01:25:12;;;;;;;1.70;1.60;;;19.80;62.60;;;;;;5051341;28;20032;-80
2023/05/20 01:27:38;;;;;;;2.05;1.67;;;19.80;62.60;;;;;;5030374;28;20768;-80
2023/05/20 01:30:04;;;;;;;1.65;1.55;;;19.80;62.60;;;;;;5056035;28;20041;-81
2023/05/20 01:32:31;;;;;;;1.48;1.38;;;19.80;62.60;;;;;;5040796;28;20091;-80
2023/05/20 01:34:57;;;;;;;1.60;1.50;;;19.80;62.70;;;;;;5036076;28;20063;-81
2023/05/20 01:37:24;;;;;;;1.80;1.70;;;19.80;62.60;;;;;;5050477;28;20485;-81
2023/05/20 01:39:50;;;;;;;1.45;1.35;;;19.70;62.60;;;;;;5030217;28;20403;-80
2023/05/20 01:42:15;;;;;;;1.60;1.50;;;19.80;62.70;;;;;;5033019;28;20090;-81
2023/05/20 01:44:41;;;;;;;1.58;1.48;;;19.80;62.70;;;;;;5050085;28;20050;-80
2023/05/20 01:47:06;;;;;;;1.50;1.40;;;19.80;62.70;;;;;;5049461;28;20041;-80
2023/05/20 01:49:32;;;;;;;1.70;1.60;;;19.70;62.60;;;;;;5036094;28;20090;-79
2023/05/20 01:51:57;;;;;;;1.45;1.35;;;19.70;62.60;;;;;;5045625;28;20044;-79
2023/05/20 01:54:23;;;;;;;1.77;1.67;;;19.70;62.60;;;;;;5047038;28;20051;-81
2023/05/20 01:56:49;;;;;;;1.55;1.40;;;19.70;62.70;;;;;;5050269;28;20049;-79
2023/05/20 01:59:14;;;;;;;1.52;1.42;;;19.70;62.70;;;;;;5056607;28;20044;-80
2023/05/20 02:01:40;;;;;;;1.30;1.30;;;19.70;62.60;;;;;;5056004;28;20043;-80
2023/05/20 02:04:05;;;;;;;1.10;1.00;;;19.70;62.70;;;;;;5056184;28;20490;-81
2023/05/20 02:06:31;;;;;;;1.05;1.05;;;19.70;62.70;;;;;;5053109;28;20037;-80
2023/05/20 02:08:56;;;;;;;1.50;1.40;;;19.70;62.70;;;;;;5046580;28;20053;-80
2023/05/20 02:11:22;;;;;;;1.20;1.20;;;19.70;62.70;;;;;;5048239;28;20045;-80
2023/05/20 02:13:49;;;;;;;1.42;1.35;;;19.70;62.80;;;;;;5033276;28;20137;-80
2023/05/20 02:16:14;;;;;;;1.35;1.35;;;19.70;62.90;;;;;;5055623;28;20055;-80
2023/05/20 02:18:41;;;;;;;2.05;1.25;;;19.70;62.90;;;;;;5050811;28;20049;-80
2023/05/20 02:21:07;;;;;;;1.50;1.40;;;19.70;62.80;;;;;;5049772;28;20044;-80
2023/05/20 02:23:32;;;;;;;1.60;1.50;;;19.70;62.80;;;;;;5051766;28;20541;-81
2023/05/20 02:25:58;;;;;;;1.45;1.35;;;19.70;62.90;;;;;;5053791;28;20425;-80
2023/05/20 02:28:24;;;;;;;1.50;1.40;;;19.70;62.90;;;;;;5053018;28;20036;-80
2023/05/20 02:30:52;;;;;;;1.67;1.58;;;19.70;62.90;;;;;;5028546;28;20041;-80
2023/05/20 02:33:18;;;;;;;1.20;1.20;;;19.70;63.00;;;;;;5044184;28;20064;-81
2023/05/20 02:35:44;;;;;;;1.60;1.50;;;19.70;62.90;;;;;;5048481;28;20494;-80
2023/05/20 02:38:10;;;;;;;1.40;1.30;;;19.70;62.90;;;;;;5043277;28;20127;-81
2023/05/20 02:40:36;;;;;;;1.48;1.38;;;19.70;63.00;;;;;;5048472;28;20522;-81
2023/05/20 02:43:01;;;;;;;1.20;1.10;;;19.70;63.00;;;;;;5045362;28;20087;-81
2023/05/20 02:45:27;;;;;;;1.25;1.15;;;19.70;63.00;;;;;;5048003;28;20445;-81
2023/05/20 02:47:53;;;;;;;1.20;1.20;;;19.70;63.10;;;;;;5044794;28;20048;-80
2023/05/20 02:50:18;;;;;;;1.10;1.00;;;19.60;63.10;;;;;;5042454;28;20106;-81
2023/05/20 02:52:44;;;;;;;1.10;1.10;;;19.60;63.10;;;;;;5041915;28;20451;-80
2023/05/20 02:55:10;;;;;;;1.35;1.25;;;19.60;63.10;;;;;;5039563;28;20171;-80
2023/05/20 02:57:38;;;;;;;1.33;1.23;;;19.60;63.10;;;;;;5046314;28;20029;-80
2023/05/20 03:00:09;;;;;;;1.15;0.90;;;19.60;63.10;;;;;;5052164;28;20045;-80
2023/05/20 03:02:35;;;;;;;0.98;0.88;;;19.60;63.10;;;;;;5043167;28;20046;-80
2023/05/20 03:05:01;;;;;;;1.10;1.08;;;19.60;63.10;;;;;;5042144;28;20428;-80
2023/05/20 03:07:27;;;;;;;1.10;1.10;;;19.60;63.10;;;;;;5040519;28;20037;-79
2023/05/20 03:09:52;;;;;;;1.02;1.02;;;19.60;63.20;;;;;;5038931;28;20096;-80
2023/05/20 03:12:18;;;;;;;1.35;1.25;;;19.60;63.20;;;;;;5029167;28;20071;-80
2023/05/20 03:14:43;;;;;;;1.00;1.00;;;19.60;63.20;;;;;;5047581;28;20045;-80
2023/05/20 03:17:09;;;;;;;1.30;1.20;;;19.60;63.20;;;;;;5049003;28;20049;-80
2023/05/20 03:19:35;;;;;;;0.80;0.80;;;19.60;63.30;;;;;;5039434;28;20047;-79
2023/05/20 03:22:00;;;;;;;1.13;1.13;;;19.60;63.30;;;;;;5029196;28;20037;-80
2023/05/20 03:24:27;;;;;;;1.23;1.15;;;19.60;63.20;;;;;;5038412;28;20381;-81
2023/05/20 03:26:52;;;;;;;1.45;1.35;;;19.60;63.20;;;;;;5039430;28;20045;-80
2023/05/20 03:29:18;;;;;;;1.10;1.00;;;19.60;63.30;;;;;;5046595;28;20037;-80
2023/05/20 03:31:43;;;;;;;0.93;0.93;;;19.60;63.30;;;;;;5043547;28;20056;-79
2023/05/20 03:34:09;;;;;;;1.00;1.00;;;19.60;63.30;;;;;;5045408;28;20077;-80
2023/05/20 03:36:35;;;;;;;1.30;1.25;;;19.60;63.30;;;;;;5041700;28;20084;-79
2023/05/20 03:39:03;;;;;;;1.40;1.30;;;19.60;63.30;;;;;;5054891;28;20037;-80
2023/05/20 03:41:28;;;;;;;1.20;1.10;;;19.60;63.30;;;;;;5040814;28;20072;-81
2023/05/20 03:43:54;;;;;;;1.10;1.10;;;19.60;63.30;;;;;;5043182;28;22397;-80
2023/05/20 03:46:20;;;;;;;1.30;1.23;;;19.60;64.10;;;;;;5038812;28;20598;-80
2023/05/20 03:48:45;;;;;;;1.20;1.02;;;19.60;63.40;;;;;;5043195;28;20128;-80
2023/05/20 03:51:11;;;;;;;1.02;1.02;;;19.60;63.30;;;;;;5038515;28;20052;-81
2023/05/20 03:53:36;;;;;;;1.05;0.98;;;19.60;63.30;;;;;;5044393;28;20049;-80
2023/05/20 03:56:02;;;;;;;1.00;1.00;;;19.60;64.20;;;;;;5038889;28;20417;-81
2023/05/20 03:58:28;;;;;;;0.80;0.80;;;19.60;63.30;;;;;;5046518;28;20041;-81
2023/05/20 04:00:54;;;;;;;0.88;0.88;;;19.50;63.30;;;;;;5042382;28;20634;-81
2023/05/20 04:03:21;;;;;;;0.93;0.93;;;19.50;63.30;;;;;;5041570;28;20041;-81
2023/05/20 04:05:47;;;;;;;1.30;1.20;;;19.50;63.40;;;;;;5032109;28;20449;-80
2023/05/20 04:08:13;;;;;;;1.02;1.00;;;19.50;63.30;;;;;;5043586;28;20042;-80
2023/05/20 04:10:41;;;;;;;1.20;0.95;;;19.50;63.30;;;;;;5046245;28;20037;-79
2023/05/20 04:13:07;;;;;;;1.00;1.00;;;19.60;63.40;;;;;;5032595;28;20045;-80
2023/05/20 04:15:35;;;;;;;0.90;0.90;;;19.60;63.40;;;;;;5028966;28;20042;-80
2023/05/20 04:18:01;;;;;;;0.80;0.80;;;19.50;63.40;;;;;;5028939;28;20038;-80
2023/05/20 04:20:26;;;;;;;0.90;0.90;;;19.50;63.40;;;;;;5028142;28;20050;-80
2023/05/20 04:22:53;;;;;;;1.00;0.90;;;19.50;63.40;;;;;;5021937;28;20049;-80
2023/05/20 04:25:18;;;;;;;1.00;1.00;;;19.50;63.40;;;;;;5023717;28;20046;-79
2023/05/20 04:27:44;;;;;;;1.10;1.10;;;19.50;63.40;;;;;;5023946;28;20055;-80
2023/05/20 04:30:10;;;;;;;1.00;1.00;;;19.50;63.40;;;;;;5026593;28;20034;-80
2023/05/20 04:32:37;;;;;;;0.98;0.90;;;19.50;63.40;;;;;;5035000;28;20582;-79
2023/05/20 04:35:07;;;;;;;1.23;1.13;;;19.50;63.40;;;;;;5028151;28;20060;-81
2023/05/20 04:37:33;;;;;;;1.15;1.10;;;19.50;63.30;;;;;;5027470;28;20104;-80
2023/05/20 04:40:02;;;;;;;0.90;0.90;;;19.50;63.20;;;;;;5025572;28;20100;-80
2023/05/20 04:42:28;;;;;;;0.93;0.93;;;19.50;63.20;;;;;;5025698;28;20076;-80
2023/05/20 04:44:54;;;;;;;1.00;1.00;;;19.50;63.20;;;;;;5023529;28;20100;-80
2023/05/20 04:47:19;;;;;;;0.80;0.80;;;19.50;63.20;;;;;;5039222;28;20451;-79
2023/05/20 04:49:45;;;;;;;0.75;0.75;;;19.50;63.30;;;;;;5023255;28;20045;-80
2023/05/20 04:52:10;;;;;;;0.90;0.90;;;19.50;63.30;;;;;;5025146;28;20084;-80
2023/05/20 04:54:36;;;;;;;1.10;1.00;;;19.50;63.30;;;;;;5027582;28;20537;-80
2023/05/20 04:57:02;;;;;;;2.15;1.10;;;19.50;63.30;;;;;;5025627;28;20536;-80
2023/05/20 04:59:27;;;;;;;1.10;1.10;;;19.50;63.30;;;;;;5026346;28;20064;-80
2023/05/20 05:01:53;;;;;;;0.85;0.80;;;19.50;63.30;;;;;;5021460;28;20053;-80
2023/05/20 05:04:18;;;;;;;0.90;0.90;;;19.50;63.30;;;;;;5029547;28;20096;-80
2023/05/20 05:06:46;;;;;;;1.15;1.15;;;19.50;63.20;;;;;;5018479;28;20551;-80
2023/05/20 05:09:12;;;;;;;1.00;1.00;;;19.50;63.30;;;;;;5017623;28;20063;-81
2023/05/20 05:11:38;;;;;;;1.08;1.08;;;19.50;63.20;;;;;;5029326;28;20132;-80
2023/05/20 05:14:03;;;;;;;1.65;0.80;;;19.50;63.30;;;;;;5042574;28;20570;-79
2023/05/20 05:16:29;;;;;;;0.82;0.82;;;19.50;63.30;;;;;;5044937;28;20041;-79
2023/05/20 05:18:54;;;;;;;0.80;0.80;;;19.50;63.20;;;;;;5033570;28;20059;-80
2023/05/20 05:21:20;;;;;;;0.90;0.90;;;19.50;63.20;;;;;;5056831;28;20124;-79
2023/05/20 05:23:46;;;;;;;0.90;0.90;;;19.50;63.30;;;;;;5041526;28;20599;-79
2023/05/20 05:26:11;;;;;;;1.63;0.70;;;19.50;63.30;;;;;;5039648;28;20037;-79
2023/05/20 05:28:37;;;;;;;0.80;0.80;;;19.50;63.20;;;;;;5044371;28;20402;-79
2023/05/20 05:31:02;;;;;;;1.42;0.95;;;19.50;63.30;;;;;;5043199;28;20120;-79
2023/05/20 05:33:28;;;;;;;0.70;0.70;;;19.50;63.30;;;;;;5044981;28;20132;-79
2023/05/20 05:35:57;;;;;;;1.67;1.00;;;19.50;63.30;;;;;;5046082;28;20155;-79
2023/05/20 05:38:23;;;;;;;0.77;0.77;;;19.50;63.20;;;;;;5045503;28;20084;-79
2023/05/20 05:40:49;;;;;;;0.95;0.90;;;19.50;63.20;;;;;;5046629;28;20041;-78
2023/05/20 05:43:15;;;;;;;1.15;0.80;;;19.50;63.20;;;;;;5046805;28;20516;-79
2023/05/20 05:45:42;;;;;;;0.50;0.50;;;19.50;64.00;;;;;;5039505;28;20049;-79
2023/05/20 05:48:07;;;;;;;1.30;0.93;;;19.50;64.00;;;;;;5041821;28;20054;-79
2023/05/20 05:50:33;;;;;;;0.85;0.80;;;19.50;63.20;;;;;;5025513;28;20530;-79
2023/05/20 05:52:58;;;;;;;0.93;0.93;;;19.40;63.20;;;;;;5044623;28;20037;-79
2023/05/20 05:55:24;;;;;;;0.90;0.90;;;19.50;63.20;;;;;;5038110;28;20041;-79
2023/05/20 05:57:50;;;;;;;0.90;0.90;;;19.50;63.20;;;;;;5042001;28;20103;-79
2023/05/20 06:00:16;;;;;;;0.88;0.88;;;19.50;63.20;;;;;;5043511;28;20048;-79
2023/05/20 06:02:42;;;;;;;0.60;0.60;;;19.50;63.20;;;;;;5039808;28;20039;-79
2023/05/20 06:05:08;;;;;;;0.75;0.75;;;19.50;63.20;;;;;;5025489;28;20041;-79
2023/05/20 06:07:33;;;;;;;0.80;0.80;;;19.50;63.20;;;;;;5045752;28;20041;-79
2023/05/20 06:09:59;;;;;;;0.70;0.70;;;19.50;63.20;;;;;;5042662;28;20099;-79
2023/05/20 06:12:24;;;;;;;0.88;0.88;;;19.50;63.20;;;;;;5044637;28;20058;-79
2023/05/20 06:14:50;;;;;;;0.80;0.80;;;19.50;63.20;;;;;;5039193;28;20115;-80
2023/05/20 06:17:16;;;;;;;0.60;0.60;;;19.50;63.20;;;;;;5043009;28;20120;-79
2023/05/20 06:19:41;;;;;;;0.68;0.68;;;19.50;63.20;;;;;;5042434;28;20090;-79
2023/05/20 06:22:07;;;;;;;2.33;0.77;;;19.50;63.20;;;;;;5045499;28;20492;-78
2023/05/20 06:24:33;;;;;;;0.98;0.80;;;19.50;62.70;;;;;;5042150;28;20049;-80
2023/05/20 06:26:58;;;;;;;1.10;1.05;;;19.50;62.80;;;;;;5038198;28;20130;-82
2023/05/20 06:29:24;;;;;;;1.52;1.20;;;19.40;62.40;;;;;;5041513;28;20049;-81
2023/05/20 06:31:49;;;;;;;1.67;1.58;;;19.40;62.20;;;;;;5040546;28;20508;-79
2023/05/20 06:34:15;;;;;;;2.00;1.80;;;19.40;61.80;;;;;;5030147;28;20072;-79
2023/05/20 06:36:41;;;;;;;1.73;1.63;;;19.50;61.40;;;;;;5046377;28;20059;-79
2023/05/20 06:39:11;;;;;;;3.15;2.13;;;19.50;61.60;;;;;;5043369;28;20073;-79
2023/05/20 06:41:39;;;;;;;2.38;2.17;;;19.50;60.80;;;;;;5044793;28;20044;-79
2023/05/20 06:44:06;;;;;;;2.10;1.90;;;19.50;61.10;;;;;;5042746;28;20065;-79
2023/05/20 06:46:31;;;;;;;3.92;1.92;;;19.50;60.80;;;;;;5042377;28;20561;-79
2023/05/20 06:48:57;;;;;;;3.20;2.15;;;19.40;60.80;;;;;;5046065;28;20041;-82
2023/05/20 06:51:22;;;;;;;2.67;2.08;;;19.40;60.90;;;;;;5045674;28;20461;-78
2023/05/20 06:53:48;;;;;;;5.90;2.10;;;19.50;61.10;;;;;;5044109;28;20041;-79
2023/05/20 06:56:14;;;;;;;5.68;2.58;;;19.40;60.90;;;;;;5041196;28;20047;-82
2023/05/20 06:58:40;;;;;;;4.55;1.90;;;19.50;60.80;;;;;;5044303;28;20048;-86
2023/05/20 07:01:05;;;;;;;4.30;2.20;;;19.50;60.70;;;;;;5045851;28;20071;-82
2023/05/20 07:03:31;;;;;;;2.40;1.80;;;19.50;61.10;;;;;;5025365;28;20102;-83
2023/05/20 07:05:56;;;;;;;4.10;1.70;;;19.60;61.00;;;;;;5041485;28;20047;-81
2023/05/20 07:08:22;;;;;;;3.50;1.70;;;19.50;61.00;;;;;;5041085;28;20041;-81
2023/05/20 07:10:47;;;;;;;3.10;1.70;;;19.50;61.00;;;;;;5017893;28;20083;-80
2023/05/20 07:13:13;;;;;;;1.70;1.60;;;19.50;61.20;;;;;;5043567;28;20124;-82
2023/05/20 07:15:39;;;;;;;5.10;1.70;;;19.50;61.10;;;;;;5045198;28;20041;-82
2023/05/20 07:18:05;;;;;;;2.45;1.58;;;19.50;61.10;;;;;;5043392;28;20041;-84
2023/05/20 07:20:30;;;;;;;2.15;1.63;;;19.60;61.30;;;;;;5038194;28;20548;-85
2023/05/20 07:22:56;;;;;;;3.42;1.52;;;19.60;61.30;;;;;;5042010;28;20529;-82
2023/05/20 07:25:21;;;;;;;2.90;1.38;;;19.60;62.20;;;;;;5042606;28;20099;-83
2023/05/20 07:27:47;;;;;;;4.75;1.90;;;19.60;61.20;;;;;;5040225;28;20065;-84
2023/05/20 07:30:13;;;;;;;1.60;1.42;;;19.60;62.10;;;;;;5040610;28;20434;-84
2023/05/20 07:32:38;;;;;;;1.92;1.73;;;19.60;61.40;;;;;;5043729;28;20124;-84
2023/05/20 07:35:04;;;;;;;2.17;1.73;;;19.60;61.40;;;;;;5043657;28;20406;-85
2023/05/20 07:37:30;;;;;;;1.98;1.77;;;19.60;61.50;;;;;;5041352;28;20045;-85
2023/05/20 07:39:55;;;;;;;5.53;1.60;;;19.60;61.40;;;;;;5041932;28;20063;-88
2023/05/20 07:42:21;;;;;;;2.55;1.75;;;19.60;61.40;;;;;;5045089;28;20059;-87
2023/05/20 07:44:47;;;;;;;2.38;1.30;;;19.70;61.50;;;;;;5046307;28;20079;-87
2023/05/20 07:47:13;;;;;;;1.70;1.20;;;19.70;61.50;;;;;;5045750;28;20068;-83
2023/05/20 07:49:38;;;;;;;1.65;1.20;;;19.70;61.70;;;;;;5044818;28;20472;-83
2023/05/20 07:52:04;;;;;;;2.15;1.10;;;19.70;62.00;;;;;;5048115;28;20124;-85
2023/05/20 07:54:30;;;;;;;1.38;1.20;;;19.70;62.10;;;;;;5052275;28;20053;-86
2023/05/20 07:56:55;;;;;;;1.83;1.10;;;19.70;62.20;;;;;;5048436;28;21422;-86
2023/05/20 07:59:21;;;;;;;1.23;1.08;;;19.80;62.10;;;;;;5048759;28;20646;-87
2023/05/20 08:01:46;;;;;;;1.70;1.35;;;19.80;62.20;;;;;;5045176;28;20045;-86
2023/05/20 08:04:12;;;;;;;1.67;1.08;;;19.80;62.10;;;;;;5015940;28;20049;-84
2023/05/20 08:06:38;;;;;;;1.58;1.45;;;19.80;62.60;;;;;;5043224;28;20052;-86
2023/05/20 08:09:04;;;;;;;2.00;1.10;;;19.80;63.50;;;;;;5029007;28;20469;-86
2023/05/20 08:11:29;;;;;;;1.40;1.23;;;19.80;63.50;;;;;;5032383;28;20060;-88
2023/05/20 08:13:55;;;;;;;2.28;1.17;;;19.80;63.50;;;;;;5047472;28;20539;-87
2023/05/20 08:16:21;;;;;;;1.00;0.90;;;19.80;63.70;;;;;;5049283;28;20056;-86
2023/05/20 08:18:46;;;;;;;1.52;1.42;;;19.80;63.90;;;;;;5029451;28;20054;-88
2023/05/20 08:21:14;;;;;;;1.73;1.40;;;19.80;63.80;;;;;;5032734;28;20056;-83
2023/05/20 08:23:40;;;;;;;0.95;0.90;;;19.80;63.90;;;;;;5045702;28;20037;-85
2023/05/20 08:26:05;;;;;;;2.17;1.33;;;19.80;63.70;;;;;;5046340;28;20049;-87
2023/05/20 08:28:31;;;;;;;1.08;0.98;;;19.80;63.60;;;;;;5029965;28;20465;-84
2023/05/20 08:30:57;;;;;;;1.80;1.20;;;19.80;63.60;;;;;;5047585;28;20422;-85
2023/05/20 08:33:22;;;;;;;1.30;1.20;;;19.80;63.60;;;;;;5045986;28;20025;-83
2023/05/20 08:35:48;;;;;;;3.17;1.65;;;19.90;63.50;;;;;;5046374;28;20049;-83
2023/05/20 08:38:14;;;;;;;1.98;1.20;;;19.90;63.50;;;;;;5047455;28;20132;-84
2023/05/20 08:40:39;;;;;;;1.92;1.30;;;19.90;63.60;;;;;;5052607;28;20589;-83
2023/05/20 08:43:05;;;;;;;2.30;1.00;;;19.90;63.70;;;;;;5038123;28;20518;-84
2023/05/20 08:45:33;;;;;;;0.88;0.88;;;19.90;63.60;;;;;;5028870;28;20106;-86
2023/05/20 08:47:59;;;;;;;1.80;1.10;;;19.90;63.60;;;;;;5026361;28;20055;-84
2023/05/20 08:50:25;;;;;;;2.33;1.30;;;19.90;63.60;;;;;;5046738;28;20051;-83
2023/05/20 08:52:51;;;;;;;4.07;1.52;;;20.00;63.60;;;;;;5046943;28;20045;-82
2023/05/20 08:55:21;;;;;;;1.55;1.00;;;20.00;63.70;;;;;;5030198;28;20478;-83
2023/05/20 08:57:54;;;;;;;2.78;1.25;;;20.00;63.80;;;;;;5027871;28;20433;-85
2023/05/20 09:00:22;;;;;;;1.23;1.13;;;20.00;63.70;;;;;;5028923;28;20528;-81
2023/05/20 09:02:48;;;;;;;2.40;1.20;;;20.00;63.70;;;;;;5045974;28;20405;-84
2023/05/20 09:05:13;;;;;;;1.35;1.10;;;20.00;63.60;;;;;;5043776;28;20051;-80
2023/05/20 09:07:41;;;;;;;1.23;1.10;;;20.10;63.80;;;;;;5042051;28;20139;-81
2023/05/20 09:10:07;;;;;;;2.25;1.10;;;20.10;63.80;;;;;;5047188;28;20032;-81
2023/05/20 09:12:33;;;;;;;1.67;1.30;;;20.10;63.80;;;;;;5041972;28;20059;-81
2023/05/20 09:14:58;;;;;;;3.38;1.60;;;20.10;64.60;;;;;;5047070;28;20036;-78
2023/05/20 09:17:24;;;;;;;2.15;1.02;;;20.20;63.80;;;;;;5065951;28;20037;-80
2023/05/20 09:19:50;;;;;;;1.23;0.90;;;20.20;63.80;;;;;;4354018;28;10000897;-80
2023/05/20 09:22:26;;;;;;;1.35;1.00;;;20.20;63.90;;;;;;5053264;28;20055;-83
2023/05/20 09:24:51;;;;;;;1.63;1.25;;;20.20;63.90;;;;;;5050512;28;20557;-82
2023/05/20 09:27:20;;;;;;;1.65;1.50;;;20.20;64.00;;;;;;5031564;28;20140;-83
2023/05/20 09:29:49;;;;;;;2.88;1.30;;;20.20;64.00;;;;;;5021480;28;20145;-81
2023/05/20 09:32:15;;;;;;;2.20;1.30;;;20.20;64.10;;;;;;5031311;28;20059;-81
2023/05/20 09:34:41;;;;;;;1.60;1.50;;;20.20;64.10;;;;;;5051299;28;20120;-83
2023/05/20 09:37:08;;;;;;;1.95;1.77;;;20.20;64.40;;;;;;5049667;28;20033;-80
2023/05/20 09:39:47;;;;;;;1.98;1.35;;;20.20;64.20;;;;;;5018749;28;20041;-82
2023/05/20 09:42:17;;;;;;;1.50;1.40;;;20.20;65.00;;;;;;5035077;28;20156;-81
2023/05/20 09:44:43;;;;;;;2.55;1.38;;;20.20;64.10;;;;;;5048706;28;20486;-82
2023/05/20 09:47:09;;;;;;;1.55;1.30;;;20.30;64.20;;;;;;5043818;28;20064;-80
2023/05/20 09:49:35;;;;;;;3.42;1.25;;;20.30;64.20;;;;;;5032922;28;20084;-80
2023/05/20 09:52:02;;;;;;;2.45;1.00;;;20.30;64.00;;;;;;4698840;28;10000164;-78
2023/05/20 09:54:28;;;;;;;2.63;1.10;;;20.40;63.90;;;;;;5017104;28;20049;-81
2023/05/20 09:56:53;;;;;;;1.00;0.90;;;20.40;63.90;;;;;;5070304;28;20048;-81
2023/05/20 09:59:20;;;;;;;1.27;1.17;;;20.40;63.80;;;;;;5036185;28;20076;-81
2023/05/20 10:01:45;;;;;;;3.20;1.30;;;20.40;63.80;;;;;;5067351;28;20129;-80
2023/05/20 10:04:11;;;;;;;1.40;1.20;;;20.40;63.70;;;;;;5050850;28;20060;-80
2023/05/20 10:06:48;;;;;;;1.25;1.15;;;20.50;63.80;;;;;;5033816;28;20102;-79
2023/05/20 10:09:42;;;;;;;0.95;0.90;;;20.50;63.70;;;;;;5053270;28;20094;-80
2023/05/20 10:12:40;;;;;;;1.00;1.00;;;20.50;63.70;;;;;;5043610;28;20043;-80
2023/05/20 10:15:42;;;;;;;1.17;1.08;;;20.50;63.60;;;;;;5034651;28;20076;-80
2023/05/20 10:18:36;;;;;;;2.85;1.00;;;20.50;63.70;;;;;;5045721;28;20119;-80
2023/05/20 10:21:02;;;;;;;5.50;1.20;;;20.60;64.60;;;;;;5043782;28;20033;-78
2023/05/20 10:23:28;;;;;;;1.85;1.20;;;20.60;63.80;;;;;;5036257;28;20398;-80
2023/05/20 10:25:56;;;;;;;2.47;1.65;;;20.60;63.30;;;;;;5055775;28;20040;-79
2023/05/20 10:28:28;;;;;;;2.10;1.67;;;20.50;63.20;;;;;;5055330;28;20128;-79
2023/05/20 10:30:54;;;;;;;2.15;1.80;;;20.50;64.70;;;;;;5053134;28;20444;-78
2023/05/20 10:33:19;;;;;;;2.65;1.75;;;20.50;63.50;;;;;;5052739;28;20037;-79
2023/05/20 10:35:51;;;;;;;2.35;1.27;;;20.50;63.20;;;;;;5044459;28;20568;-81
2023/05/20 10:38:17;;;;;;;2.20;1.52;;;20.50;63.00;;;;;;5051277;28;20125;-79
2023/05/20 10:40:42;;;;;;;2.03;1.83;;;20.50;62.90;;;;;;5033176;28;20045;-82
2023/05/20 10:43:10;;;;;;;4.68;1.90;;;20.50;62.50;;;;;;5067259;28;20044;-79
2023/05/20 10:45:45;;;;;;;4.53;2.40;;;20.50;61.80;;;;;;5046316;28;20461;-79
2023/05/20 10:48:19;;;;;;;3.75;2.08;;;20.60;61.90;;;;;;5050938;28;20055;-79
2023/05/20 10:50:45;;;;;;;4.28;2.53;;;20.50;62.20;;;;;;5066612;28;20044;-79
2023/05/20 10:53:11;;;;;;;1.75;1.50;;;20.60;62.30;;;;;;5049701;28;20509;-79
2023/05/20 10:55:38;;;;;;;3.17;2.08;;;20.60;62.00;;;;;;5067273;28;20048;-78
2023/05/20 10:58:04;;;;;;;3.25;2.38;;;20.60;61.20;;;;;;5037695;28;20033;-78
2023/05/20 11:00:30;;;;;;;3.40;2.10;;;20.60;61.10;;;;;;5048612;28;20128;-78
2023/05/20 11:02:56;;;;;;;5.55;2.33;;;20.60;61.10;;;;;;5057355;28;20124;-79
2023/05/20 11:05:21;;;;;;;4.13;2.58;;;20.60;61.10;;;;;;5032176;28;20522;-79
2023/05/20 11:07:47;;;;;;;3.30;1.88;;;20.60;61.40;;;;;;5026532;28;20045;-78
2023/05/20 11:10:13;;;;;;;3.63;2.10;;;20.60;62.40;;;;;;5054052;28;20510;-78
2023/05/20 11:12:38;;;;;;;3.40;1.85;;;20.50;60.90;;;;;;5045487;28;20122;-79
2023/05/20 11:15:04;;;;;;;1.95;1.80;;;20.50;61.60;;;;;;5059783;28;20418;-79
2023/05/20 11:17:30;;;;;;;2.90;1.98;;;20.60;61.50;;;;;;5049809;28;20053;-78
2023/05/20 11:19:59;;;;;;;3.97;2.10;;;20.60;61.30;;;;;;4694760;28;10000445;-80
2023/05/20 11:22:25;;;;;;;3.05;2.15;;;20.60;60.90;;;;;;5056218;28;20044;-78
2023/05/20 11:24:50;;;;;;;3.22;2.30;;;20.60;61.10;;;;;;5053489;28;20067;-80
2023/05/20 11:27:16;;;;;;;7.82;2.50;;;20.60;60.80;;;;;;5050437;28;20528;-79
2023/05/20 11:29:42;;;;;;;2.97;2.13;;;20.60;61.10;;;;;;5027434;28;20049;-79
2023/05/20 11:32:08;;;;;;;3.50;1.77;;;20.60;60.90;;;;;;5041851;28;20047;-79
2023/05/20 11:34:34;;;;;;;3.55;1.88;;;20.60;61.10;;;;;;5048397;28;20041;-80
2023/05/20 11:36:59;;;;;;;3.03;2.28;;;20.60;60.90;;;;;;5034498;28;20045;-79
2023/05/20 11:39:28;;;;;;;2.78;2.15;;;20.60;60.30;;;;;;5048382;28;20520;-79
2023/05/20 11:41:54;;;;;;;1.80;1.65;;;20.60;61.10;;;;;;5070129;28;20040;-79
2023/05/20 11:44:20;;;;;;;3.60;1.98;;;20.60;60.90;;;;;;5048133;28;20095;-80
2023/05/20 11:46:46;;;;;;;2.75;1.73;;;20.60;61.20;;;;;;4721433;28;10000477;-79
2023/05/20 11:49:15;;;;;;;2.40;1.70;;;20.60;61.10;;;;;;5054694;28;20561;-79
2023/05/20 11:51:41;;;;;;;1.50;1.40;;;20.60;60.50;;;;;;5053904;28;20474;-79
2023/05/20 11:54:07;;;;;;;2.13;1.90;;;20.70;60.70;;;;;;5059804;28;20041;-79
2023/05/20 11:56:33;;;;;;;2.28;2.00;;;20.70;61.30;;;;;;5047525;28;20127;-78
2023/05/20 11:59:03;;;;;;;1.80;1.70;;;20.60;60.50;;;;;;5045512;28;20052;-79
2023/05/20 12:01:30;;;;;;;3.40;1.70;;;20.60;61.30;;;;;;5043009;28;20060;-79
2023/05/20 12:03:56;;;;;;;2.63;1.98;;;20.70;60.30;;;;;;5043453;28;20033;-79
2023/05/20 12:06:21;;;;;;;2.38;1.90;;;20.70;60.20;;;;;;5048875;28;20083;-81
2023/05/20 12:08:47;;;;;;;4.07;2.40;;;20.70;60.30;;;;;;5049334;28;20045;-79
2023/05/20 12:11:12;;;;;;;4.72;1.98;;;20.70;60.00;;;;;;5050149;28;20040;-80
2023/05/20 12:13:39;;;;;;;1.90;1.60;;;20.80;60.10;;;;;;5047133;28;20098;-79
2023/05/20 12:16:05;;;;;;;2.47;1.90;;;20.80;60.10;;;;;;5053245;28;20082;-79
2023/05/20 12:18:31;;;;;;;2.20;2.00;;;20.80;60.10;;;;;;5049256;28;20044;-78
2023/05/20 12:20:57;;;;;;;4.50;2.03;;;20.80;60.20;;;;;;5044876;28;20554;-78
2023/05/20 12:23:23;;;;;;;1.70;1.60;;;20.80;60.20;;;;;;5056697;28;22327;-78
2023/05/20 12:25:49;;;;;;;2.10;1.90;;;20.80;60.90;;;;;;5036774;28;20502;-78
2023/05/20 12:28:16;;;;;;;2.95;1.90;;;20.80;60.10;;;;;;5056129;28;20036;-79
2023/05/20 12:30:42;;;;;;;4.25;2.35;;;20.80;59.50;;;;;;5053261;28;20047;-78
2023/05/20 12:33:08;;;;;;;4.07;2.20;;;20.80;59.50;;;;;;5055914;28;20033;-79
2023/05/20 12:35:41;;;;;;;2.00;1.77;;;20.80;59.70;;;;;;5052324;28;20120;-77
2023/05/20 12:38:06;;;;;;;2.78;1.88;;;20.80;60.40;;;;;;5040373;28;21176;-77
2023/05/20 12:40:32;;;;;;;1.85;1.48;;;20.70;59.20;;;;;;5032945;28;20891;-77
2023/05/20 12:42:59;;;;;;;1.83;1.67;;;20.70;58.70;;;;;;5057695;28;20039;-76